Time;durP1;ratioP1;P1;durP2;ratioP2;P2;SDS_P1;SDS_P2;PMS_P1;PMS_P2;Temp;Humidity;BMP_temperature;BMP_pressure;BME280_temperature;BME280_humidity;BME280_pressure;Samples;Min_cycle;Max_cycle;Signal;HPM_P1;HPM_P2
2022/04/02 00:00:50;;;;;;;15.73;11.15;;;;;;;-1.39;99.75;95348.53;2063637;28;20221;-59
2022/04/02 00:01:52;;;;;;;14.30;10.60;;;;;;;-1.43;100.00;95344.41;2062841;28;20658;-60
2022/04/02 00:02:54;;;;;;;20.83;11.80;;;;;;;-1.40;100.00;95342.53;2064151;28;20278;-59
2022/04/02 00:03:55;;;;;;;13.63;10.20;;;;;;;-1.41;100.00;95340.88;2063931;28;20199;-59
2022/04/02 00:04:57;;;;;;;14.05;10.55;;;;;;;-1.33;100.00;95340.56;2064200;28;20196;-60
2022/04/02 00:05:58;;;;;;;14.50;10.90;;;;;;;-1.30;100.00;95347.31;2063675;28;20503;-59
2022/04/02 00:07:00;;;;;;;12.85;10.25;;;;;;;-1.38;100.00;95342.47;2063957;28;20207;-60
2022/04/02 00:08:01;;;;;;;14.65;11.80;;;;;;;-1.51;100.00;95351.59;2063979;28;20199;-59
2022/04/02 00:09:04;;;;;;;14.57;11.73;;;;;;;-1.37;100.00;95344.16;2064154;28;20199;-60
2022/04/02 00:10:07;;;;;;;15.80;10.93;;;;;;;-1.39;100.00;95345.97;2064103;28;20201;-60
2022/04/02 00:11:08;;;;;;;14.38;10.95;;;;;;;-1.36;100.00;95347.56;2062777;28;20527;-60
2022/04/02 00:12:10;;;;;;;16.10;11.10;;;;;;;-1.34;100.00;95343.19;2063562;28;20210;-59
2022/04/02 00:13:12;;;;;;;12.90;10.48;;;;;;;-1.38;100.00;95351.94;2064217;28;20209;-60
2022/04/02 00:14:14;;;;;;;14.50;10.60;;;;;;;-1.39;100.00;95340.81;2064076;28;20603;-60
2022/04/02 00:15:15;;;;;;;14.40;11.25;;;;;;;-1.38;100.00;95351.94;2064072;28;20203;-60
2022/04/02 00:16:17;;;;;;;15.15;10.55;;;;;;;-1.32;100.00;95336.25;2063705;28;20234;-60
2022/04/02 00:17:18;;;;;;;13.48;10.75;;;;;;;-1.28;100.00;95340.38;2063955;28;20207;-59
2022/04/02 00:18:21;;;;;;;13.88;10.50;;;;;;;-1.28;100.00;95333.47;2064181;28;20202;-60
2022/04/02 00:19:22;;;;;;;14.43;10.65;;;;;;;-1.13;100.00;95339.72;2063893;28;20726;-60
2022/04/02 00:20:23;;;;;;;12.73;10.32;;;;;;;-1.31;100.00;95337.94;2064189;28;20669;-60
2022/04/02 00:21:25;;;;;;;11.70;9.50;;;;;;;-1.26;100.00;95344.53;2063721;28;20703;-59
2022/04/02 00:22:26;;;;;;;12.25;9.32;;;;;;;-1.24;100.00;95340.16;2063432;28;20538;-59
2022/04/02 00:23:39;;;;;;;13.45;10.00;;;;;;;-1.25;100.00;95342.81;2064128;28;20208;-60
2022/04/02 00:24:41;;;;;;;11.32;9.63;;;;;;;-1.23;100.00;95341.03;2063678;28;20202;-59
2022/04/02 00:25:43;;;;;;;10.98;9.18;;;;;;;-1.28;100.00;95342.94;2063304;28;20197;-60
2022/04/02 00:26:44;;;;;;;10.98;9.32;;;;;;;-1.22;100.00;95346.06;2064232;28;20212;-59
2022/04/02 00:27:46;;;;;;;11.40;9.35;;;;;;;-1.30;100.00;95345.56;2064088;28;20244;-60
2022/04/02 00:28:49;;;;;;;11.82;8.77;;;;;;;-1.30;100.00;95342.16;2064064;28;20201;-59
2022/04/02 00:29:51;;;;;;;11.88;9.48;;;;;;;-1.27;100.00;95345.44;2063686;28;20207;-60
2022/04/02 00:30:52;;;;;;;11.20;9.30;;;;;;;-1.22;100.00;95345.25;2063398;28;20222;-60
2022/04/02 00:31:54;;;;;;;14.63;10.00;;;;;;;-1.20;100.00;95341.72;2064193;28;20698;-60
2022/04/02 00:32:55;;;;;;;11.05;8.95;;;;;;;-1.14;100.00;95340.59;2063583;28;20200;-59
2022/04/02 00:33:57;;;;;;;15.27;9.02;;;;;;;-1.14;100.00;95345.75;2063932;28;20202;-60
2022/04/02 00:34:59;;;;;;;11.43;8.98;;;;;;;-1.08;100.00;95347.22;2064088;28;20215;-60
2022/04/02 00:36:01;;;;;;;12.57;8.60;;;;;;;-1.09;99.71;95346.41;2063057;28;20364;-60
2022/04/02 00:37:03;;;;;;;11.60;8.77;;;;;;;-1.09;100.00;95343.00;2064098;28;20202;-59
2022/04/02 00:38:04;;;;;;;10.60;8.35;;;;;;;-1.22;100.00;95340.09;2064010;28;20204;-60
2022/04/02 00:39:07;;;;;;;11.45;9.45;;;;;;;-1.13;100.00;95342.28;2063982;28;20200;-60
2022/04/02 00:40:09;;;;;;;11.93;8.43;;;;;;;-1.05;99.83;95344.53;2065031;28;20657;-59
2022/04/02 00:41:13;;;;;;;9.23;7.43;;;;;;;-1.02;99.80;95344.38;2067087;28;20228;-59
2022/04/02 00:42:15;;;;;;;11.32;8.50;;;;;;;-1.05;100.00;95341.97;2063997;28;20201;-59
2022/04/02 00:43:32;;;;;;;12.77;8.55;;;;;;;-1.15;99.49;95344.09;2063917;28;20200;-60
2022/04/02 00:44:34;;;;;;;12.05;7.95;;;;;;;-1.09;100.00;95345.56;2063359;28;20200;-59
2022/04/02 00:45:35;;;;;;;11.90;9.30;;;;;;;-1.08;100.00;95345.50;2063419;28;20198;-60
2022/04/02 00:46:39;;;;;;;11.88;8.45;;;;;;;-1.02;99.90;95350.38;2063845;28;20204;-59
2022/04/02 00:47:40;;;;;;;11.20;8.13;;;;;;;-1.09;99.88;95338.69;2063365;28;20226;-60
2022/04/02 00:48:42;;;;;;;10.43;8.70;;;;;;;-1.05;99.59;95339.41;2064056;28;20203;-60
2022/04/02 00:49:43;;;;;;;9.35;7.68;;;;;;;-1.24;99.77;95339.34;2062715;28;20204;-59
2022/04/02 00:50:47;;;;;;;9.88;8.20;;;;;;;-1.11;100.00;95340.50;2062777;28;20408;-60
2022/04/02 00:51:50;;;;;;;9.48;8.30;;;;;;;-1.16;99.36;95339.84;2062845;28;20212;-59
2022/04/02 00:52:52;;;;;;;11.00;7.63;;;;;;;-1.11;99.91;95335.34;2064184;28;20196;-59
2022/04/02 00:53:53;;;;;;;11.27;7.88;;;;;;;-1.18;100.00;95339.06;2063952;28;20229;-60
2022/04/02 00:54:55;;;;;;;10.77;7.50;;;;;;;-1.18;100.00;95344.22;2063981;28;20648;-59
2022/04/02 00:55:57;;;;;;;11.07;8.45;;;;;;;-1.14;100.00;95335.47;2063513;28;20226;-60
2022/04/02 00:56:58;;;;;;;10.93;7.95;;;;;;;-1.07;99.87;95344.59;2064031;28;20198;-60
2022/04/02 00:58:02;;;;;;;9.90;8.18;;;;;;;-1.25;100.00;95337.69;2064047;28;20572;-59
2022/04/02 00:59:04;;;;;;;12.05;8.68;;;;;;;-1.17;100.00;95348.47;2063845;28;20207;-60
2022/04/02 01:00:06;;;;;;;11.77;8.65;;;;;;;-1.17;100.00;95345.06;2063843;28;20224;-59
2022/04/02 01:01:07;;;;;;;12.35;9.43;;;;;;;-1.16;100.00;95347.53;2062939;28;20230;-60
2022/04/02 01:02:09;;;;;;;10.63;8.40;;;;;;;-1.10;100.00;95346.44;2064004;28;20281;-60
2022/04/02 01:03:11;;;;;;;12.02;8.77;;;;;;;-1.26;100.00;95348.84;2063623;28;20596;-60
2022/04/02 01:04:14;;;;;;;13.45;9.80;;;;;;;-1.13;100.00;95347.44;2063935;28;20196;-59
2022/04/02 01:05:15;;;;;;;12.10;9.80;;;;;;;-1.23;100.00;95346.97;2063880;28;20202;-60
2022/04/02 01:06:17;;;;;;;16.45;9.35;;;;;;;-1.28;100.00;95343.75;2063415;28;20247;-60
2022/04/02 01:07:19;;;;;;;12.93;9.93;;;;;;;-1.30;100.00;95348.13;2063927;28;20623;-60
2022/04/02 01:08:21;;;;;;;12.90;9.60;;;;;;;-1.23;100.00;95346.16;2063911;28;20660;-59
2022/04/02 01:09:22;;;;;;;13.15;9.32;;;;;;;-1.13;100.00;95347.44;2064895;28;20196;-60
2022/04/02 01:10:24;;;;;;;14.63;10.50;;;;;;;-1.08;100.00;95348.09;2064956;28;20737;-59
2022/04/02 01:11:39;;;;;;;11.40;8.90;;;;;;;-1.14;100.00;95345.75;2064694;28;20249;-60
2022/04/02 01:12:43;;;;;;;12.60;9.55;;;;;;;-1.06;100.00;95346.28;2065069;28;20202;-60
2022/04/02 01:13:45;;;;;;;14.77;11.43;;;;;;;-1.24;100.00;95341.91;2065102;28;20188;-60
2022/04/02 01:14:46;;;;;;;13.77;9.82;;;;;;;-1.21;100.00;95347.75;2065326;28;20286;-60
2022/04/02 01:15:48;;;;;;;15.48;10.93;;;;;;;-1.20;100.00;95346.88;2064998;28;20765;-60
2022/04/02 01:16:50;;;;;;;15.43;10.95;;;;;;;-1.28;100.00;95348.06;2065466;28;20260;-60
2022/04/02 01:17:52;;;;;;;16.23;9.90;;;;;;;-1.22;100.00;95353.78;2065374;28;20211;-59
2022/04/02 01:18:54;;;;;;;14.63;10.38;;;;;;;-1.17;100.00;95350.22;2065424;28;20555;-60
2022/04/02 01:19:55;;;;;;;13.23;10.00;;;;;;;-1.08;100.00;95350.66;2069939;28;20192;-59
2022/04/02 01:20:58;;;;;;;13.50;10.60;;;;;;;-1.13;100.00;95347.44;2067842;28;20648;-59
2022/04/02 01:21:59;;;;;;;13.68;10.63;;;;;;;-1.18;100.00;95345.94;2065071;28;20237;-59
2022/04/02 01:23:02;;;;;;;14.18;9.75;;;;;;;-1.15;100.00;95356.13;2063644;28;20204;-59
2022/04/02 01:24:04;;;;;;;17.08;10.20;;;;;;;-1.15;100.00;95358.69;2065356;28;20212;-60
2022/04/02 01:25:06;;;;;;;17.17;11.40;;;;;;;-1.10;100.00;95356.72;2064392;28;20852;-60
2022/04/02 01:26:08;;;;;;;19.45;11.70;;;;;;;-1.06;100.00;95359.13;2064792;28;20233;-59
2022/04/02 01:27:09;;;;;;;17.95;11.68;;;;;;;-1.27;100.00;95355.72;2065197;28;20203;-60
2022/04/02 01:28:11;;;;;;;23.42;10.98;;;;;;;-1.30;100.00;95350.69;2064673;28;20636;-60
2022/04/02 01:29:12;;;;;;;13.05;9.55;;;;;;;-1.16;100.00;95357.00;2065361;28;20578;-60
2022/04/02 01:30:15;;;;;;;14.43;10.18;;;;;;;-1.12;100.00;95354.22;2065287;28;20856;-60
2022/04/02 01:31:16;;;;;;;15.10;11.10;;;;;;;-1.05;100.00;95358.22;2064892;28;20239;-59
2022/04/02 01:32:18;;;;;;;15.75;10.65;;;;;;;-1.04;100.00;95356.47;2064668;28;20262;-60
2022/04/02 01:33:19;;;;;;;15.13;10.90;;;;;;;-1.19;100.00;95357.97;2064676;28;20204;-59
2022/04/02 01:34:21;;;;;;;14.93;11.23;;;;;;;-1.15;100.00;95358.69;2065137;28;20198;-60
2022/04/02 01:35:22;;;;;;;15.00;10.52;;;;;;;-1.11;100.00;95358.47;2065255;28;20206;-60
2022/04/02 01:36:24;;;;;;;22.73;11.98;;;;;;;-1.08;100.00;95363.50;2064979;28;20230;-59
2022/04/02 01:37:26;;;;;;;16.58;11.20;;;;;;;-1.08;100.00;95358.34;2065133;28;20197;-60
2022/04/02 01:38:28;;;;;;;16.65;12.02;;;;;;;-1.01;100.00;95364.88;2065299;28;20198;-59
2022/04/02 01:39:30;;;;;;;16.13;10.65;;;;;;;-1.03;100.00;95358.97;2064114;28;20212;-60
2022/04/02 01:40:31;;;;;;;14.93;10.98;;;;;;;-0.96;100.00;95358.72;2064632;28;20200;-59
2022/04/02 01:41:33;;;;;;;22.00;10.93;;;;;;;-1.09;100.00;95366.13;2064854;28;20206;-59
2022/04/02 01:42:34;;;;;;;13.88;10.65;;;;;;;-1.16;100.00;95362.97;2064459;28;20200;-59
2022/04/02 01:43:36;;;;;;;18.98;11.90;;;;;;;-1.14;100.00;95366.31;2064052;28;20197;-59
2022/04/02 01:44:38;;;;;;;14.63;10.13;;;;;;;-1.10;100.00;95357.56;2065198;28;20208;-60
2022/04/02 01:45:39;;;;;;;12.20;9.75;;;;;;;-1.03;99.91;95358.97;2064713;28;20206;-59
2022/04/02 01:46:41;;;;;;;13.35;9.57;;;;;;;-1.09;100.00;95358.41;2065180;28;20661;-59
2022/04/02 01:47:42;;;;;;;18.38;11.30;;;;;;;-1.19;99.91;95365.69;2065099;28;20192;-59
2022/04/02 01:48:45;;;;;;;14.25;9.70;;;;;;;-1.10;100.00;95359.31;2064956;28;20200;-60
2022/04/02 01:49:48;;;;;;;14.27;11.40;;;;;;;-1.03;99.98;95363.28;2064065;28;20194;-60
2022/04/02 01:50:50;;;;;;;14.93;9.55;;;;;;;-1.20;99.67;95361.44;2064192;28;20221;-60
2022/04/02 01:51:52;;;;;;;19.58;10.63;;;;;;;-1.20;99.94;95362.28;2064603;28;20537;-60
2022/04/02 01:52:54;;;;;;;14.23;9.80;;;;;;;-1.17;100.00;95363.88;2062428;28;20651;-58
2022/04/02 01:53:55;;;;;;;15.27;9.10;;;;;;;-1.12;99.32;95363.66;2064778;28;20602;-58
2022/04/02 01:54:56;;;;;;;16.80;10.85;;;;;;;-1.17;99.58;95366.44;2064749;28;20205;-58
2022/04/02 01:55:58;;;;;;;17.33;10.40;;;;;;;-1.17;100.00;95360.47;2064243;28;20228;-58
2022/04/02 01:57:01;;;;;;;21.70;9.88;;;;;;;-1.07;99.73;95367.72;2064612;28;20203;-58
2022/04/02 01:58:03;;;;;;;13.98;8.98;;;;;;;-1.08;100.00;95371.22;2064693;28;20208;-58
2022/04/02 01:59:05;;;;;;;13.13;9.30;;;;;;;-1.02;99.54;95364.94;2064515;28;20210;-58
2022/04/02 02:00:33;;;;;;;14.80;9.48;;;;;;;-1.08;99.01;95373.78;2064954;28;20200;-58
2022/04/02 02:01:35;;;;;;;12.10;8.60;;;;;;;-1.13;99.07;95362.84;2079079;28;20261;-58
2022/04/02 02:02:37;;;;;;;12.07;9.07;;;;;;;-1.09;99.55;95363.56;2080020;28;20199;-58
2022/04/02 02:03:38;;;;;;;19.83;9.13;;;;;;;-1.07;99.38;95367.72;2079982;28;20197;-58
2022/04/02 02:04:40;;;;;;;12.68;9.15;;;;;;;-1.13;99.21;95365.41;2080052;28;20241;-58
2022/04/02 02:05:42;;;;;;;12.82;9.00;;;;;;;-1.21;98.77;95360.59;2077809;28;20275;-59
2022/04/02 02:06:45;;;;;;;13.50;9.30;;;;;;;-1.19;99.03;95357.97;2080043;28;20277;-58
2022/04/02 02:07:50;;;;;;;15.63;9.20;;;;;;;-1.17;99.61;95366.44;2079982;28;20200;-58
2022/04/02 02:08:51;;;;;;;13.25;8.73;;;;;;;-1.14;99.30;95361.16;2079995;28;20199;-58
2022/04/02 02:09:57;;;;;;;10.00;8.35;;;;;;;-1.28;99.13;95366.88;2079221;28;20201;-58
2022/04/02 02:10:59;;;;;;;11.32;8.55;;;;;;;-1.40;99.79;95363.09;2078181;28;20238;-58
2022/04/02 02:12:01;;;;;;;11.57;8.00;;;;;;;-1.29;99.80;95372.09;2079959;28;20214;-58
2022/04/02 02:13:03;;;;;;;10.30;8.35;;;;;;;-1.31;99.27;95364.47;2079822;28;20241;-57
2022/04/02 02:14:04;;;;;;;11.57;8.48;;;;;;;-1.46;100.00;95373.63;2079899;28;20211;-61
2022/04/02 02:15:07;;;;;;;10.30;8.13;;;;;;;-1.28;99.83;95369.44;2080018;28;20200;-58
2022/04/02 02:16:08;;;;;;;18.83;8.90;;;;;;;-1.23;99.25;95369.28;2079389;28;20225;-58
2022/04/02 02:17:10;;;;;;;12.60;8.88;;;;;;;-1.24;99.07;95368.41;2080048;28;20231;-58
2022/04/02 02:18:12;;;;;;;15.88;8.43;;;;;;;-1.20;98.87;95375.13;2079018;28;20292;-58
2022/04/02 02:19:13;;;;;;;10.00;7.82;;;;;;;-1.31;99.12;95374.72;2079877;28;20233;-58
2022/04/02 02:20:16;;;;;;;17.92;9.63;;;;;;;-1.31;99.30;95374.72;2079589;28;20889;-58
2022/04/02 02:21:17;;;;;;;14.27;9.20;;;;;;;-1.24;99.25;95380.44;2079471;28;20936;-59
2022/04/02 02:22:19;;;;;;;13.95;9.35;;;;;;;-1.23;99.42;95377.00;2080115;28;20235;-59
2022/04/02 02:23:20;;;;;;;14.40;8.60;;;;;;;-1.28;98.94;95372.03;2079946;28;20824;-59
2022/04/02 02:24:22;;;;;;;11.25;8.13;;;;;;;-1.37;99.31;95384.41;2079837;28;20202;-59
2022/04/02 02:25:24;;;;;;;13.65;9.18;;;;;;;-1.38;99.66;95375.88;2079875;28;20212;-59
2022/04/02 02:26:26;;;;;;;15.00;9.27;;;;;;;-1.46;99.74;95380.50;2079527;28;20226;-59
2022/04/02 02:27:27;;;;;;;15.07;9.70;;;;;;;-1.40;99.81;95386.22;2079936;28;20552;-59
2022/04/02 02:28:28;;;;;;;14.13;8.15;;;;;;;-1.42;99.74;95382.03;2079868;28;20673;-59
2022/04/02 02:29:30;;;;;;;15.02;8.77;;;;;;;-1.43;99.79;95386.34;2078186;28;20719;-59
2022/04/02 02:30:32;;;;;;;15.85;9.90;;;;;;;-1.41;100.00;95387.13;2079446;28;20211;-60
2022/04/02 02:31:34;;;;;;;12.90;9.23;;;;;;;-1.29;99.87;95384.94;2079715;28;20206;-59
2022/04/02 02:32:39;;;;;;;11.18;8.73;;;;;;;-1.35;100.00;95385.19;2079268;28;20211;-59
2022/04/02 02:36:21;;;;;;;12.65;8.65;;;;;;;-1.32;99.40;95395.34;2079174;28;20229;-59
2022/04/02 02:37:27;;;;;;;14.15;9.25;;;;;;;-1.30;99.28;95390.97;2079109;28;20849;-59
2022/04/02 02:38:29;;;;;;;11.25;8.40;;;;;;;-1.51;100.00;95397.81;2079703;28;20211;-59
2022/04/02 02:39:30;;;;;;;17.30;9.15;;;;;;;-1.39;100.00;95397.34;2073897;28;20209;-59
2022/04/02 02:40:33;;;;;;;20.10;8.45;;;;;;;-1.26;99.92;95395.09;2080048;28;20195;-59
2022/04/02 02:41:34;;;;;;;14.73;8.90;;;;;;;-1.42;100.00;95393.13;2079981;28;20198;-59
2022/04/02 02:42:36;;;;;;;12.15;8.00;;;;;;;-1.35;99.87;95396.31;2064803;28;20243;-59
2022/04/02 02:43:38;;;;;;;11.10;8.35;;;;;;;-1.23;99.48;95393.22;2064721;28;20218;-60
2022/04/02 02:44:41;;;;;;;10.85;8.60;;;;;;;-1.27;99.66;95401.13;2064097;28;20203;-59
2022/04/02 02:45:43;;;;;;;16.25;9.02;;;;;;;-1.37;100.00;95399.81;2063439;28;20191;-59
2022/04/02 02:46:45;;;;;;;9.60;7.70;;;;;;;-1.35;100.00;95393.75;2064408;28;20197;-59
2022/04/02 02:47:46;;;;;;;12.38;8.05;;;;;;;-1.32;99.75;95393.59;2064769;28;20200;-59
2022/04/02 02:48:48;;;;;;;11.45;8.60;;;;;;;-1.29;99.50;95395.22;2064627;28;20231;-59
2022/04/02 02:49:49;;;;;;;14.70;7.70;;;;;;;-1.31;99.13;95399.59;2064847;28;20202;-59
2022/04/02 02:50:51;;;;;;;14.50;8.30;;;;;;;-1.45;99.23;95397.56;2062780;28;20228;-59
2022/04/02 02:51:52;;;;;;;15.93;7.88;;;;;;;-1.58;100.00;95381.00;2064464;28;20207;-59
2022/04/02 02:52:54;;;;;;;12.43;8.45;;;;;;;-1.45;99.68;95387.28;2064040;28;20216;-59
2022/04/02 02:53:55;;;;;;;13.00;8.40;;;;;;;-1.45;99.90;95401.00;2064125;28;20219;-59
2022/04/02 02:54:57;;;;;;;15.07;8.20;;;;;;;-1.40;99.84;95398.22;2064428;28;20502;-59
2022/04/02 02:55:59;;;;;;;12.50;7.75;;;;;;;-1.36;99.33;95404.91;2063997;28;20239;-59
2022/04/02 02:57:00;;;;;;;10.15;7.25;;;;;;;-1.37;99.08;95399.81;2063121;28;20204;-59
2022/04/02 02:58:02;;;;;;;11.02;6.78;;;;;;;-1.32;98.95;95403.88;2064437;28;20222;-59
2022/04/02 02:59:04;;;;;;;11.57;8.05;;;;;;;-1.35;98.73;95388.59;2064280;28;20210;-59
2022/04/02 03:00:07;;;;;;;16.85;7.70;;;;;;;-1.40;98.73;95396.47;2064137;28;20702;-59
2022/04/02 03:01:11;;;;;;;32.03;8.50;;;;;;;-1.33;98.94;95401.38;2064135;28;20231;-59
2022/04/02 03:02:12;;;;;;;10.00;6.82;;;;;;;-1.29;98.50;95398.63;2063957;28;20234;-59
2022/04/02 03:03:14;;;;;;;13.07;7.72;;;;;;;-1.28;98.54;95395.13;2063893;28;20289;-59
2022/04/02 03:04:18;;;;;;;16.70;7.00;;;;;;;-1.45;98.98;95397.56;2064583;28;20199;-59
2022/04/02 03:05:19;;;;;;;11.13;7.45;;;;;;;-1.46;99.03;95401.88;2063650;28;20640;-59
2022/04/02 03:06:22;;;;;;;9.75;7.45;;;;;;;-1.49;99.07;95399.44;2063616;28;20242;-59
2022/04/02 03:07:25;;;;;;;14.00;7.47;;;;;;;-1.45;99.51;95392.41;2064554;28;20206;-59
2022/04/02 03:08:26;;;;;;;21.73;8.10;;;;;;;-1.45;98.69;95398.41;2063292;28;20979;-59
2022/04/02 03:09:28;;;;;;;18.00;8.55;;;;;;;-1.51;98.94;95403.81;2064377;28;20204;-59
2022/04/02 03:10:30;;;;;;;11.15;8.57;;;;;;;-1.44;99.08;95397.50;2062572;28;20565;-59
2022/04/02 03:11:32;;;;;;;16.00;8.10;;;;;;;-1.44;98.69;95402.66;2064199;28;20247;-59
2022/04/02 03:12:33;;;;;;;11.30;7.25;;;;;;;-1.50;99.64;95402.91;2064522;28;20656;-59
2022/04/02 03:13:38;;;;;;;18.95;7.60;;;;;;;-1.45;99.30;95402.69;2064492;28;20210;-59
2022/04/02 03:14:40;;;;;;;14.73;7.28;;;;;;;-1.53;99.50;95403.03;2064506;28;20731;-59
2022/04/02 03:15:42;;;;;;;11.38;8.23;;;;;;;-1.41;99.56;95404.28;2064043;28;20253;-59
2022/04/02 03:16:44;;;;;;;12.85;7.43;;;;;;;-1.55;99.13;95406.53;2064471;28;20642;-59
2022/04/02 03:17:47;;;;;;;21.85;7.85;;;;;;;-1.43;99.25;95406.03;2062341;28;20210;-59
2022/04/02 03:18:48;;;;;;;11.18;7.38;;;;;;;-1.42;98.52;95398.28;2064671;28;20200;-59
2022/04/02 03:19:50;;;;;;;18.40;8.05;;;;;;;-1.41;98.10;95404.28;2064506;28;20766;-59
2022/04/02 03:20:51;;;;;;;11.48;6.70;;;;;;;-1.53;99.07;95409.88;2064108;28;20314;-59
2022/04/02 03:21:53;;;;;;;11.95;7.05;;;;;;;-1.50;98.63;95404.63;2063867;28;20211;-59
2022/04/02 03:22:54;;;;;;;16.50;7.93;;;;;;;-1.40;99.23;95411.88;2064427;28;20193;-59
2022/04/02 03:23:56;;;;;;;13.88;7.80;;;;;;;-1.35;98.87;95406.59;2064307;28;20192;-59
2022/04/02 03:24:57;;;;;;;18.02;8.23;;;;;;;-1.49;98.18;95406.28;2064447;28;20201;-59
2022/04/02 03:25:59;;;;;;;12.73;7.35;;;;;;;-1.44;98.97;95414.66;2062756;28;20230;-59
2022/04/02 03:27:00;;;;;;;20.45;8.02;;;;;;;-1.42;99.06;95418.81;2064493;28;20206;-59
2022/04/02 03:28:03;;;;;;;14.10;8.10;;;;;;;-1.38;99.27;95416.16;2064426;28;20210;-60
2022/04/02 03:29:05;;;;;;;10.68;7.32;;;;;;;-1.45;98.87;95416.41;2063852;28;20203;-59
2022/04/02 03:30:09;;;;;;;13.77;8.02;;;;;;;-1.38;98.41;95416.97;2064295;28;20203;-59
2022/04/02 03:31:10;;;;;;;15.45;8.25;;;;;;;-1.46;98.98;95406.19;2063780;28;20763;-59
2022/04/02 03:32:12;;;;;;;16.88;8.57;;;;;;;-1.38;98.97;95418.72;2063273;28;20203;-59
2022/04/02 03:33:14;;;;;;;15.95;7.80;;;;;;;-1.36;99.16;95411.78;2063596;28;20212;-59
2022/04/02 03:34:16;;;;;;;11.93;7.40;;;;;;;-1.37;98.87;95416.09;2063392;28;20288;-59
2022/04/02 03:35:19;;;;;;;14.60;7.70;;;;;;;-1.41;98.18;95409.41;2064224;28;20202;-59
2022/04/02 03:36:21;;;;;;;10.80;7.50;;;;;;;-1.37;98.08;95417.81;2063828;28;20224;-59
2022/04/02 03:37:24;;;;;;;14.98;9.07;;;;;;;-1.34;98.30;95420.25;2064175;28;20231;-59
2022/04/02 03:38:25;;;;;;;10.02;7.00;;;;;;;-1.45;97.95;95411.25;2064396;28;20594;-59
2022/04/02 03:39:27;;;;;;;12.00;7.70;;;;;;;-1.32;97.96;95419.28;2064457;28;20572;-59
2022/04/02 03:40:28;;;;;;;12.55;8.15;;;;;;;-1.33;97.85;95417.63;2063845;28;20222;-59
2022/04/02 03:41:30;;;;;;;13.65;8.82;;;;;;;-1.42;98.26;95418.81;2063829;28;20207;-59
2022/04/02 03:42:32;;;;;;;17.05;7.90;;;;;;;-1.37;98.35;95404.97;2063922;28;20204;-59
2022/04/02 03:43:34;;;;;;;13.55;8.25;;;;;;;-1.38;98.28;95416.16;2064325;28;20196;-59
2022/04/02 03:44:35;;;;;;;19.27;8.55;;;;;;;-1.47;97.62;95420.75;2064401;28;20196;-59
2022/04/02 03:45:37;;;;;;;12.30;8.20;;;;;;;-1.56;98.47;95415.16;2064007;28;20203;-60
2022/04/02 03:47:59;;;;;;;13.48;9.23;;;;;;;-1.45;98.37;95423.25;2064319;28;20588;-59
2022/04/02 03:49:01;;;;;;;22.60;9.15;;;;;;;-1.45;98.63;95425.81;2064249;28;20205;-59
2022/04/02 03:50:03;;;;;;;16.15;9.35;;;;;;;-1.48;98.90;95433.66;2064310;28;20204;-59
2022/04/02 03:51:04;;;;;;;15.10;8.23;;;;;;;-1.38;99.34;95423.84;2063616;28;20224;-59
2022/04/02 03:52:07;;;;;;;15.77;8.60;;;;;;;-1.40;98.63;95427.31;2064354;28;20204;-59
2022/04/02 03:53:09;;;;;;;15.65;9.10;;;;;;;-1.51;98.86;95420.94;2064125;28;20219;-60
2022/04/02 03:54:11;;;;;;;13.40;9.02;;;;;;;-1.58;99.39;95422.09;2064183;28;20765;-59
2022/04/02 03:55:12;;;;;;;13.80;7.70;;;;;;;-1.57;99.23;95414.28;2063848;28;20342;-59
2022/04/02 03:56:14;;;;;;;19.08;8.18;;;;;;;-1.60;99.58;95420.41;2063015;28;20233;-60
2022/04/02 03:57:15;;;;;;;17.10;8.95;;;;;;;-1.59;99.20;95426.38;2063479;28;20203;-59
2022/04/02 03:58:17;;;;;;;13.02;8.75;;;;;;;-1.61;99.67;95429.00;2063260;28;20562;-59
2022/04/02 03:59:18;;;;;;;11.75;8.35;;;;;;;-1.55;99.18;95429.66;2064057;28;20218;-59
2022/04/02 04:00:20;;;;;;;17.02;9.57;;;;;;;-1.63;99.61;95432.53;2064332;28;20201;-59
2022/04/02 04:01:22;;;;;;;14.80;9.45;;;;;;;-1.62;99.92;95437.59;2063712;28;20231;-60
2022/04/02 04:02:23;;;;;;;15.90;9.40;;;;;;;-1.64;99.79;95443.69;2064223;28;20277;-60
2022/04/02 04:03:25;;;;;;;15.68;9.90;;;;;;;-1.61;99.90;95438.44;2064182;28;20199;-59
2022/04/02 04:04:27;;;;;;;22.55;9.95;;;;;;;-1.57;100.00;95441.72;2064304;28;20204;-60
2022/04/02 04:05:29;;;;;;;15.85;8.82;;;;;;;-1.55;99.73;95435.63;2063456;28;20204;-59
2022/04/02 04:06:31;;;;;;;15.75;9.77;;;;;;;-1.63;99.33;95450.50;2063604;28;20720;-59
2022/04/02 04:07:33;;;;;;;14.05;8.98;;;;;;;-1.59;99.86;95446.91;2064139;28;20222;-59
2022/04/02 04:08:36;;;;;;;17.90;9.68;;;;;;;-1.55;99.75;95447.63;2063128;28;20207;-59
2022/04/02 04:09:40;;;;;;;16.48;8.88;;;;;;;-1.60;99.38;95440.13;2063441;28;20196;-60
2022/04/02 04:10:42;;;;;;;11.88;8.95;;;;;;;-1.57;99.56;95447.69;2062820;28;20658;-60
2022/04/02 04:11:43;;;;;;;12.15;8.90;;;;;;;-1.58;100.00;95450.34;2064036;28;20211;-60
2022/04/02 04:12:45;;;;;;;12.60;8.90;;;;;;;-1.50;99.47;95446.56;2064022;28;20202;-60
2022/04/02 04:13:47;;;;;;;12.18;9.30;;;;;;;-1.55;99.44;95448.47;2064072;28;20213;-59
2022/04/02 04:14:48;;;;;;;14.63;9.05;;;;;;;-1.61;99.43;95453.84;2063900;28;20192;-60
2022/04/02 04:15:49;;;;;;;13.52;8.93;;;;;;;-1.80;100.00;95441.72;2062783;28;20278;-60
2022/04/02 04:16:52;;;;;;;17.70;9.70;;;;;;;-1.79;100.00;95445.13;2063722;28;20223;-59
2022/04/02 04:17:56;;;;;;;13.50;9.35;;;;;;;-1.78;100.00;95454.50;2063995;28;20697;-60
2022/04/02 04:18:57;;;;;;;15.40;9.15;;;;;;;-1.77;100.00;95451.03;2064057;28;20314;-60
2022/04/02 04:19:59;;;;;;;11.35;8.45;;;;;;;-1.96;100.00;95452.63;2064120;28;20198;-60
2022/04/02 04:21:00;;;;;;;12.98;8.05;;;;;;;-1.93;100.00;95461.03;2063492;28;20230;-60
2022/04/02 04:22:03;;;;;;;14.05;8.93;;;;;;;-1.85;100.00;95459.03;2063935;28;20915;-59
2022/04/02 04:23:04;;;;;;;16.95;8.48;;;;;;;-1.69;100.00;95455.88;2064164;28;20206;-59
2022/04/02 04:24:07;;;;;;;10.50;8.15;;;;;;;-1.64;100.00;95456.53;2063974;28;20215;-60
2022/04/02 04:25:10;;;;;;;16.80;9.18;;;;;;;-1.78;100.00;95464.78;2063280;28;20195;-59
2022/04/02 04:26:13;;;;;;;19.52;8.85;;;;;;;-1.82;100.00;95461.47;2063500;28;20227;-59
2022/04/02 04:27:18;;;;;;;13.40;9.38;;;;;;;-1.81;100.00;95463.13;2064132;28;20246;-61
2022/04/02 04:28:20;;;;;;;13.27;8.45;;;;;;;-1.86;100.00;95452.22;2064049;28;20199;-59
2022/04/02 04:29:21;;;;;;;11.82;9.40;;;;;;;-1.77;100.00;95470.72;2064090;28;20266;-60
2022/04/02 04:30:23;;;;;;;18.33;8.73;;;;;;;-1.68;100.00;95466.09;2063042;28;20211;-59
2022/04/02 04:31:24;;;;;;;11.85;8.18;;;;;;;-1.61;99.85;95464.09;2063678;28;20224;-60
2022/04/02 04:32:26;;;;;;;14.02;10.43;;;;;;;-1.67;99.39;95466.91;2064044;28;20211;-59
2022/04/02 04:33:28;;;;;;;12.02;8.98;;;;;;;-1.64;99.51;95469.38;2063638;28;20207;-59
2022/04/02 04:34:29;;;;;;;11.75;9.20;;;;;;;-1.62;99.70;95460.72;2063930;28;20206;-59
2022/04/02 04:35:30;;;;;;;15.45;8.98;;;;;;;-1.63;99.16;95456.50;2063340;28;20848;-59
2022/04/02 04:36:33;;;;;;;14.70;9.07;;;;;;;-1.62;98.82;95465.84;2063992;28;20667;-60
2022/04/02 04:37:35;;;;;;;14.20;9.30;;;;;;;-1.73;98.98;95464.59;2063956;28;20204;-60
2022/04/02 04:38:37;;;;;;;10.85;9.10;;;;;;;-1.86;99.04;95465.06;2064033;28;20249;-60
2022/04/02 04:39:39;;;;;;;11.65;8.77;;;;;;;-1.86;99.53;95464.19;2064009;28;20199;-59
2022/04/02 04:40:40;;;;;;;12.50;9.20;;;;;;;-2.02;100.00;95462.25;2063515;28;20199;-59
2022/04/02 04:41:42;;;;;;;15.52;9.50;;;;;;;-1.93;100.00;95467.91;2063523;28;20211;-60
2022/04/02 04:42:44;;;;;;;15.02;10.20;;;;;;;-1.86;100.00;95466.78;2063959;28;20278;-59
2022/04/02 04:43:48;;;;;;;13.40;9.68;;;;;;;-1.81;100.00;95470.00;2064086;28;20190;-59
2022/04/02 04:44:49;;;;;;;14.20;9.77;;;;;;;-1.85;99.89;95471.84;2065194;28;20559;-60
2022/04/02 04:45:51;;;;;;;15.35;10.48;;;;;;;-1.81;99.86;95473.41;2064422;28;20289;-59
2022/04/02 04:46:52;;;;;;;12.10;9.35;;;;;;;-1.83;100.00;95474.38;2064892;28;20203;-60
2022/04/02 04:47:54;;;;;;;13.77;9.20;;;;;;;-1.90;100.00;95472.91;2065611;28;20199;-59
2022/04/02 04:48:55;;;;;;;12.18;9.15;;;;;;;-1.76;100.00;95475.81;2064868;28;20206;-60
2022/04/02 04:49:57;;;;;;;15.30;8.85;;;;;;;-1.86;100.00;95479.59;2056792;28;20213;-59
2022/04/02 04:50:58;;;;;;;14.30;8.80;;;;;;;-1.77;100.00;95481.00;2063828;28;20223;-59